Time;durP1;ratioP1;P1;durP2;ratioP2;P2;SDS_P1;SDS_P2;PMS_P1;PMS_P2;Temp;Humidity;BMP_temperature;BMP_pressure;BME280_temperature;BME280_humidity;BME280_pressure;Samples;Min_cycle;Max_cycle;Signal;HPM_P1;HPM_P2
2021/06/02 00:00:12;;;;;;;;;;;;;;;23.28;31.12;94511.69;5015315;28;19948;-58
2021/06/02 00:02:39;;;;;;;;;;;;;;;23.56;30.27;94521.19;5014766;28;19913;-53
2021/06/02 00:05:07;;;;;;;;;;;;;;;23.58;30.66;94518.91;5013296;28;19913;-52
2021/06/02 00:07:34;;;;;;;;;;;;;;;23.84;30.20;94515.38;5014696;28;19918;-51
2021/06/02 00:10:01;;;;;;;;;;;;;;;23.92;30.32;94512.41;5014102;28;19920;-52
2021/06/02 00:12:28;;;;;;;;;;;;;;;23.60;30.98;94516.66;5015142;28;19917;-50
2021/06/02 00:14:55;;;;;;;;;;;;;;;23.63;31.30;94508.69;5014921;28;19920;-50
2021/06/02 00:17:21;;;;;;;;;;;;;;;23.50;30.84;94503.94;5014764;28;19929;-49
2021/06/02 00:19:48;;;;;;;;;;;;;;;23.99;30.13;94504.47;5013879;28;19917;-65
2021/06/02 00:22:15;;;;;;;;;;;;;;;23.99;29.78;94496.47;5013936;28;19925;-66
2021/06/02 00:24:42;;;;;;;;;;;;;;;23.81;30.45;94500.88;5014856;28;19917;-54
2021/06/02 00:27:10;;;;;;;;;;;;;;;23.80;30.49;94494.00;5014767;28;20541;-50
2021/06/02 00:29:38;;;;;;;;;;;;;;;24.05;29.55;94494.22;5014862;28;20316;-51
2021/06/02 00:32:06;;;;;;;;;;;;;;;23.65;30.92;94500.31;5014913;28;19921;-53
2021/06/02 00:34:33;;;;;;;;;;;;;;;23.61;30.42;94494.94;5013993;28;19921;-61
2021/06/02 00:37:01;;;;;;;;;;;;;;;23.72;29.80;94503.06;5015131;28;19925;-54
2021/06/02 00:39:27;;;;;;;;;;;;;;;24.72;28.07;94506.56;5014990;28;19928;-54
2021/06/02 00:41:55;;;;;;;;;;;;;;;23.70;29.83;94504.56;5014879;28;19924;-50
2021/06/02 00:44:22;;;;;;;;;;;;;;;24.07;28.81;94504.53;5015066;28;19921;-51
2021/06/02 00:46:49;;;;;;;;;;;;;;;24.63;28.49;94506.13;5015237;28;19917;-67
2021/06/02 00:49:23;;;;;;;;;;;;;;;24.30;28.86;94513.16;5014814;28;20232;-49
2021/06/02 00:51:50;;;;;;;;;;;;;;;24.87;27.92;94513.56;5014742;28;19948;-59
2021/06/02 00:54:17;;;;;;;;;;;;;;;23.81;30.05;94505.44;5015031;28;19924;-50
2021/06/02 00:56:52;;;;;;;;;;;;;;;23.87;29.94;94504.72;5014844;28;19921;-50
2021/06/02 00:59:37;;;;;;;;;;;;;;;23.72;30.92;94513.75;5014853;28;19921;-53
2021/06/02 01:02:06;;;;;;;;;;;;;;;23.85;30.17;94512.34;5014896;28;19917;-48
2021/06/02 01:04:32;;;;;;;;;;;;;;;23.23;31.17;94511.25;5013073;28;19914;-71
2021/06/02 01:06:59;;;;;;;;;;;;;;;24.10;29.97;94511.81;5014937;28;19924;-50
2021/06/02 01:09:26;;;;;;;;;;;;;;;23.56;30.52;94510.50;5013588;28;20232;-49
2021/06/02 01:11:53;;;;;;;;;;;;;;;23.18;31.37;94511.56;5013547;28;19924;-52
2021/06/02 01:14:20;;;;;;;;;;;;;;;23.64;30.65;94517.44;5015102;28;19920;-62
2021/06/02 01:16:49;;;;;;;;;;;;;;;24.17;30.15;94517.19;5018118;28;20146;-51
2021/06/02 01:19:19;;;;;;;;;;;;;;;24.19;30.18;94512.25;5017791;28;20232;-57
2021/06/02 01:21:55;;;;;;;;;;;;;;;23.52;30.96;94512.34;5017908;28;19920;-50
2021/06/02 01:24:26;;;;;;;;;;;;;;;23.52;30.87;94509.69;5018156;28;19917;-48
2021/06/02 01:26:55;;;;;;;;;;;;;;;23.15;31.62;94507.69;5017875;28;20308;-52
2021/06/02 01:29:22;;;;;;;;;;;;;;;23.63;30.92;94515.91;5017870;28;19917;-52
2021/06/02 01:32:10;;;;;;;;;;;;;;;23.69;30.72;94509.13;5017748;28;20639;-53
2021/06/02 01:34:52;;;;;;;;;;;;;;;24.08;29.98;94514.06;5016709;28;19928;-49
2021/06/02 01:37:38;;;;;;;;;;;;;;;23.61;30.39;94512.84;5016788;28;19925;-47
2021/06/02 01:40:08;;;;;;;;;;;;;;;23.98;29.94;94513.63;5016969;28;19921;-48
2021/06/02 01:42:35;;;;;;;;;;;;;;;23.56;30.49;94513.19;5017642;28;19920;-48
2021/06/02 01:45:11;;;;;;;;;;;;;;;23.73;30.26;94515.28;5017533;28;19944;-48
2021/06/02 01:48:18;;;;;;;;;;;;;;;23.13;31.21;94519.84;5017412;28;19920;-49
2021/06/02 01:51:20;;;;;;;;;;;;;;;23.26;30.94;94518.50;4995650;28;19925;-49
2021/06/02 01:54:05;;;;;;;;;;;;;;;23.18;31.52;94525.66;4937671;29;20226;-51
2021/06/02 01:56:37;;;;;;;;;;;;;;;22.41;32.79;94518.84;5004678;28;19917;-48
2021/06/02 01:59:04;;;;;;;;;;;;;;;23.62;30.21;94519.72;5010898;28;19933;-52
2021/06/02 02:02:00;;;;;;;;;;;;;;;22.84;31.68;94522.16;5017227;28;19917;-48
2021/06/02 02:04:39;;;;;;;;;;;;;;;23.25;31.12;94515.09;5007619;28;19921;-48
2021/06/02 02:07:08;;;;;;;;;;;;;;;22.51;32.25;94504.13;4998026;28;19944;-51
2021/06/02 02:09:39;;;;;;;;;;;;;;;22.28;32.60;94511.38;5013512;28;20247;-48
2021/06/02 02:12:32;;;;;;;;;;;;;;;23.06;31.64;94509.88;5017225;28;19924;-48
2021/06/02 02:15:07;;;;;;;;;;;;;;;22.51;32.11;94517.47;5016958;28;19913;-52
2021/06/02 02:17:40;;;;;;;;;;;;;;;22.87;31.22;94512.66;5016604;28;19925;-48
2021/06/02 02:20:12;;;;;;;;;;;;;;;22.92;31.46;94515.03;5017025;28;19921;-48
2021/06/02 02:22:39;;;;;;;;;;;;;;;22.31;32.14;94518.66;5016954;28;19928;-47
2021/06/02 02:25:07;;;;;;;;;;;;;;;23.22;30.45;94515.81;5016784;28;20540;-48
2021/06/02 02:27:36;;;;;;;;;;;;;;;21.91;32.82;94533.19;5016595;28;19921;-48
2021/06/02 02:30:29;;;;;;;;;;;;;;;22.02;32.68;94528.81;5016959;28;19913;-50
2021/06/02 02:32:56;;;;;;;;;;;;;;;;;;5015832;28;20240;-48
2021/06/02 02:35:41;;;;;;;;;;;;;;;22.44;32.29;94530.69;5015950;28;19925;-48
2021/06/02 02:38:27;;;;;;;;;;;;;;;22.41;31.99;94544.72;5016548;28;19925;-48
2021/06/02 02:40:54;;;;;;;;;;;;;;;22.87;31.15;94540.09;5016551;28;19924;-50
2021/06/02 02:43:21;;;;;;;;;;;;;;;22.26;32.22;94543.69;5016813;28;19918;-48
2021/06/02 02:45:59;;;;;;;;;;;;;;;23.07;30.94;94544.19;5016269;28;19913;-48
2021/06/02 02:48:33;;;;;;;;;;;;;;;22.56;31.43;94551.78;5015256;28;19917;-48
2021/06/02 02:51:09;;;;;;;;;;;;;;;21.86;33.14;94554.78;5015243;28;19921;-48
2021/06/02 02:53:44;;;;;;;;;;;;;;;22.27;32.23;94549.78;5016362;28;19921;-50
2021/06/02 02:56:15;;;;;;;;;;;;;;;22.14;32.22;94552.66;5016271;28;19919;-47
2021/06/02 02:59:02;;;;;;;;;;;;;;;22.66;31.60;94550.44;5015029;28;19917;-48
2021/06/02 03:01:44;;;;;;;;;;;;;;;22.23;32.23;94543.63;5015947;28;19922;-47
2021/06/02 03:04:14;;;;;;;;;;;;;;;22.05;32.56;94548.66;5009359;28;19924;-50
2021/06/02 03:06:42;;;;;;;;;;;;;;;22.34;32.05;94541.91;5016057;28;19918;-48
2021/06/02 03:09:27;;;;;;;;;;;;;;;21.85;32.87;94546.00;5014918;28;19913;-47
2021/06/02 03:11:54;;;;;;;;;;;;;;;22.11;32.45;94553.31;5014816;28;19917;-49
2021/06/02 03:14:25;;;;;;;;;;;;;;;22.77;31.38;94556.66;5016236;28;19917;-47
2021/06/02 03:16:52;;;;;;;;;;;;;;;22.23;33.19;94565.72;5014791;28;19924;-48
2021/06/02 03:19:20;;;;;;;;;;;;;;;22.43;32.60;94555.78;5015802;28;19924;-46
2021/06/02 03:22:02;;;;;;;;;;;;;;;22.48;32.31;94560.78;5014693;28;19924;-47
2021/06/02 03:24:29;;;;;;;;;;;;;;;22.92;31.78;94563.78;5016023;28;19914;-49
2021/06/02 03:27:09;;;;;;;;;;;;;;;22.85;32.07;94566.31;5015765;28;19920;-48
2021/06/02 03:29:46;;;;;;;;;;;;;;;22.31;32.71;94567.34;5015629;28;20545;-48
2021/06/02 03:32:21;;;;;;;;;;;;;;;22.63;32.39;94562.53;5015698;28;19921;-48
2021/06/02 03:34:51;;;;;;;;;;;;;;;22.22;32.80;94568.72;5015000;28;19917;-47
2021/06/02 03:37:38;;;;;;;;;;;;;;;22.95;32.11;94572.97;5013792;28;20367;-49
2021/06/02 03:40:14;;;;;;;;;;;;;;;22.77;32.05;94581.41;5008534;28;19918;-48
2021/06/02 03:42:41;;;;;;;;;;;;;;;22.56;32.61;94586.41;4994645;28;20339;-49
2021/06/02 03:45:19;;;;;;;;;;;;;;;23.33;31.02;94586.03;4996216;28;20311;-50
2021/06/02 03:48:04;;;;;;;;;;;;;;;22.56;32.32;94589.06;5014180;28;20300;-48
2021/06/02 03:50:46;;;;;;;;;;;;;;;22.31;32.44;94587.91;5015209;28;19917;-49
2021/06/02 03:53:17;;;;;;;;;;;;;;;22.97;31.61;94582.13;5015303;28;19924;-49
2021/06/02 03:55:44;;;;;;;;;;;;;;;22.25;32.98;94595.41;5014895;28;19913;-55
2021/06/02 03:58:17;;;;;;;;;;;;;;;22.64;32.19;94596.06;5013567;28;19925;-52
2021/06/02 04:00:48;;;;;;;;;;;;;;;22.75;32.27;94597.00;5015226;28;19920;-52
2021/06/02 04:03:22;;;;;;;;;;;;;;;22.97;32.05;94592.03;5014261;28;20232;-52
2021/06/02 04:05:49;;;;;;;;;;;;;;;23.30;31.64;94589.44;5014411;28;20331;-66
2021/06/02 04:08:16;;;;;;;;;;;;;;;23.54;31.14;94603.47;5014993;28;19925;-50
2021/06/02 04:10:44;;;;;;;;;;;;;;;24.23;30.03;94609.22;5015105;28;19913;-49
2021/06/02 04:13:30;;;;;;;;;;;;;;;23.66;31.72;94616.59;4996792;28;19921;-50
2021/06/02 04:16:01;;;;;;;;;;;;;;;24.28;30.82;94614.25;4998740;28;19924;-52
2021/06/02 04:18:28;;;;;;;;;;;;;;;27.99;25.92;94610.75;4999043;28;19918;-52
2021/06/02 04:20:54;;;;;;;;;;;;;;;30.31;22.23;94611.03;5013442;28;19944;-60
2021/06/02 04:23:21;;;;;;;;;;;;;;;31.76;21.18;94617.19;5013163;28;19947;-52
2021/06/02 04:25:48;;;;;;;;;;;;;;;32.81;19.57;94620.78;5007742;28;19917;-46
2021/06/02 04:28:15;;;;;;;;;;;;;;;33.79;18.48;94617.91;5013208;28;19920;-52
2021/06/02 04:30:47;;;;;;;;;;;;;;;34.43;17.50;94627.00;5010209;28;19913;-45
2021/06/02 04:33:15;;;;;;;;;;;;;;;34.90;17.22;94636.00;4995305;28;19924;-58
2021/06/02 04:35:44;;;;;;;;;;;;;;;33.91;18.24;94634.25;5011682;28;20308;-50
2021/06/02 04:38:11;;;;;;;;;;;;;;;30.42;21.91;94632.44;5011639;28;19928;-55
2021/06/02 04:40:39;;;;;;;;;;;;;;;27.93;24.72;94639.97;4997371;28;19917;-44
2021/06/02 04:43:06;;;;;;;;;;;;;;;26.86;26.31;94636.66;4995525;28;19914;-58
2021/06/02 04:45:34;;;;;;;;;;;;;;;25.69;28.38;94645.13;4997321;28;19944;-59
2021/06/02 04:48:01;;;;;;;;;;;;;;;25.42;29.04;94644.59;5014617;28;19917;-62
2021/06/02 04:50:37;;;;;;;;;;;;;;;25.00;29.42;94645.84;5015875;28;20201;-58
2021/06/02 04:53:10;;;;;;;;;;;;;;;25.86;28.47;94646.38;5018864;28;19924;-60
2021/06/02 04:55:59;;;;;;;;;;;;;;;25.33;28.92;94646.84;5003146;28;20327;-56
2021/06/02 04:58:44;;;;;;;;;;;;;;;25.90;28.15;94639.13;5017441;28;19925;-58
2021/06/02 05:01:30;;;;;;;;;;;;;;;25.69;28.16;94635.19;5018366;28;19913;-57
2021/06/02 05:04:09;;;;;;;;;;;;;;;25.34;29.29;94645.69;5016993;28;19921;-56
2021/06/02 05:06:39;;;;;;;;;;;;;;;25.90;28.22;94647.16;5018268;28;19929;-58
2021/06/02 05:09:07;;;;;;;;;;;;;;;25.53;28.88;94650.78;5018238;28;19920;-61
2021/06/02 05:11:43;;;;;;;;;;;;;;;26.12;27.93;94654.88;5018226;28;19920;-62
2021/06/02 05:14:28;;;;;;;;;;;;;;;25.53;28.74;94653.47;5017821;28;19921;-57
2021/06/02 05:17:10;;;;;;;;;;;;;;;25.32;28.97;94653.31;5018072;28;20330;-59
2021/06/02 05:22:33;;;;;;;;;;;;;;;25.79;28.17;94660.50;5016936;28;19921;-57
2021/06/02 05:25:06;;;;;;;;;;;;;;;26.25;27.63;94655.28;5018245;28;19921;-54
2021/06/02 05:27:39;;;;;;;;;;;;;;;25.86;28.19;94654.41;5017770;28;20332;-55
2021/06/02 05:30:24;;;;;;;;;;;;;;;25.39;28.65;94658.72;5017985;28;19913;-53
2021/06/02 05:33:10;;;;;;;;;;;;;;;26.12;27.63;94667.50;5017985;28;19920;-58
2021/06/02 05:35:59;;;;;;;;;;;;;;;25.42;28.79;94668.66;5016807;28;19927;-61
2021/06/02 05:38:45;;;;;;;;;;;;;;;25.56;28.33;94665.31;5017330;28;19928;-57
2021/06/02 05:41:28;;;;;;;;;;;;;;;25.92;27.97;94658.25;5017449;28;19917;-57
2021/06/02 05:44:09;;;;;;;;;;;;;;;25.62;28.47;94664.59;5016215;28;19945;-63
2021/06/02 05:46:54;;;;;;;;;;;;;;;25.69;28.48;94661.97;5016273;28;19932;-60
2021/06/02 05:49:40;;;;;;;;;;;;;;;25.64;28.64;94675.69;5017108;28;19917;-63
2021/06/02 05:52:26;;;;;;;;;;;;;;;26.76;26.93;94662.31;5016255;28;19913;-54
2021/06/02 05:55:13;;;;;;;;;;;;;;;26.69;26.72;94667.69;5017402;28;19914;-58
2021/06/02 05:57:42;;;;;;;;;;;;;;;26.73;27.01;94673.81;4995888;28;19918;-56
2021/06/02 06:00:12;;;;;;;;;;;;;;;26.39;27.15;94668.00;5010279;28;19917;-58
2021/06/02 06:02:49;;;;;;;;;;;;;;;25.58;29.09;94669.16;5017175;28;19917;-57
2021/06/02 06:05:16;;;;;;;;;;;;;;;25.80;28.78;94664.72;5016593;28;20629;-54
2021/06/02 06:08:01;;;;;;;;;;;;;;;26.35;28.23;94675.28;5017034;28;20339;-55
2021/06/02 06:10:34;;;;;;;;;;;;;;;26.78;27.44;94664.59;5016419;28;19920;-65
2021/06/02 06:13:19;;;;;;;;;;;;;;;26.67;27.80;94672.66;5015980;28;19913;-65
2021/06/02 06:16:04;;;;;;;;;;;;;;;26.26;27.76;94667.53;5016739;28;19917;-62
2021/06/02 06:18:31;;;;;;;;;;;;;;;25.95;28.03;94662.84;5016713;28;19921;-57
2021/06/02 06:21:16;;;;;;;;;;;;;;;26.22;28.11;94664.09;5011656;28;19921;-55
2021/06/02 06:23:49;;;;;;;;;;;;;;;27.84;26.09;94661.09;5008854;28;19921;-59
2021/06/02 06:26:17;;;;;;;;;;;;;;;25.99;28.25;94659.03;5016695;28;19917;-54
2021/06/02 06:29:03;;;;;;;;;;;;;;;26.60;26.72;94665.38;5016881;28;19924;-65
2021/06/02 06:31:31;;;;;;;;;;;;;;;27.58;25.45;94662.28;5031265;28;19921;-64
2021/06/02 06:33:58;;;;;;;;;;;;;;;27.06;26.76;94666.56;5014741;28;19924;-62
2021/06/02 06:36:25;;;;;;;;;;;;;;;26.93;26.25;94660.81;5015411;28;19918;-68
2021/06/02 06:38:59;;;;;;;;;;;;;;;27.57;25.31;94658.81;5015803;28;19925;-61
2021/06/02 06:41:26;;;;;;;;;;;;;;;27.41;26.73;94663.88;5016338;28;19917;-62
2021/06/02 06:43:53;;;;;;;;;;;;;;;28.63;24.79;94659.59;5013402;28;19917;-62
2021/06/02 06:46:22;;;;;;;;;;;;;;;27.76;25.52;94662.28;4996025;28;19918;-56
2021/06/02 06:48:49;;;;;;;;;;;;;;;27.98;25.12;94658.34;4997137;28;19921;-61
2021/06/02 06:51:18;;;;;;;;;;;;;;;28.95;24.26;94658.63;5003972;28;19914;-61
2021/06/02 06:53:45;;;;;;;;;;;;;;;28.45;24.88;94667.75;5016170;28;19925;-57
2021/06/02 06:56:12;;;;;;;;;;;;;;;28.88;24.17;94664.03;5011942;28;19922;-56
2021/06/02 06:58:39;;;;;;;;;;;;;;;29.53;22.76;94662.38;4995788;28;19925;-62
2021/06/02 07:01:06;;;;;;;;;;;;;;;30.20;22.77;94668.97;5003234;28;19920;-56
2021/06/02 07:03:33;;;;;;;;;;;;;;;30.04;22.53;94667.59;5014762;28;19920;-57
2021/06/02 07:06:02;;;;;;;;;;;;;;;29.72;22.98;94672.56;5015071;28;19913;-56
2021/06/02 07:08:32;;;;;;;;;;;;;;;30.96;21.61;94668.28;5016248;28;20327;-60
2021/06/02 07:10:59;;;;;;;;;;;;;;;30.12;21.82;94670.22;5014893;28;19920;-56
2021/06/02 07:13:26;;;;;;;;;;;;;;;31.36;20.57;94670.38;5009952;28;19914;-56
2021/06/02 07:15:54;;;;;;;;;;;;;;;31.38;20.84;94671.50;5014900;28;19918;-54
2021/06/02 07:18:29;;;;;;;;;;;;;;;30.64;21.78;94671.47;5014008;28;19921;-56
2021/06/02 07:20:56;;;;;;;;;;;;;;;31.31;20.55;94671.63;5014587;28;19917;-61
2021/06/02 07:23:23;;;;;;;;;;;;;;;31.89;20.30;94662.09;5015091;28;19921;-64
2021/06/02 07:25:50;;;;;;;;;;;;;;;31.48;20.54;94667.06;5011433;28;19918;-55
2021/06/02 07:28:19;;;;;;;;;;;;;;;29.20;23.24;94658.44;4996352;28;19918;-56
2021/06/02 07:30:46;;;;;;;;;;;;;;;30.36;22.20;94661.81;5015089;28;20319;-56
2021/06/02 07:33:13;;;;;;;;;;;;;;;32.12;20.22;94660.50;5015922;28;19917;-58
2021/06/02 07:35:40;;;;;;;;;;;;;;;31.32;20.53;94656.19;5013863;28;19918;-59
2021/06/02 07:38:08;;;;;;;;;;;;;;;33.01;19.46;94659.34;5015616;28;19924;-64
2021/06/02 07:40:35;;;;;;;;;;;;;;;31.50;21.37;94662.81;5014780;28;20296;-65
2021/06/02 07:43:02;;;;;;;;;;;;;;;31.15;20.39;94658.72;5015437;28;19920;-56
2021/06/02 07:45:29;;;;;;;;;;;;;;;30.93;21.07;94661.00;5014434;28;20006;-59
2021/06/02 07:47:56;;;;;;;;;;;;;;;30.98;20.26;94665.19;5015220;28;19924;-57
2021/06/02 07:50:23;;;;;;;;;;;;;;;29.62;21.68;94649.19;5012909;28;19945;-54
2021/06/02 07:52:50;;;;;;;;;;;;;;;30.84;20.64;94660.78;5014725;28;20240;-61
2021/06/02 07:55:18;;;;;;;;;;;;;;;30.25;21.32;94661.19;5015372;28;19921;-58
2021/06/02 07:57:45;;;;;;;;;;;;;;;29.79;22.00;94656.31;5015196;28;19913;-54
2021/06/02 08:00:14;;;;;;;;;;;;;;;31.20;20.82;94668.31;5014770;28;19971;-54
2021/06/02 08:02:42;;;;;;;;;;;;;;;31.93;19.91;94653.91;5013933;28;19921;-59
2021/06/02 08:05:10;;;;;;;;;;;;;;;31.37;20.88;94661.09;5014640;28;19917;-56
2021/06/02 08:07:37;;;;;;;;;;;;;;;31.84;20.13;94657.19;4995669;28;19917;-58
2021/06/02 08:10:04;;;;;;;;;;;;;;;31.82;19.59;94659.53;5007917;28;19917;-61
2021/06/02 08:12:31;;;;;;;;;;;;;;;32.34;19.21;94667.03;5014843;28;19917;-57
2021/06/02 08:14:58;;;;;;;;;;;;;;;33.15;18.56;94668.31;4999653;28;20264;-55
2021/06/02 08:17:25;;;;;;;;;;;;;;;33.30;18.46;94664.06;4995660;28;19924;-57
2021/06/02 08:19:52;;;;;;;;;;;;;;;33.27;18.60;94654.06;5005798;28;20346;-64
2021/06/02 08:22:19;;;;;;;;;;;;;;;32.84;19.15;94665.97;5014686;28;19996;-56
2021/06/02 08:24:46;;;;;;;;;;;;;;;32.49;19.16;94668.22;5017999;28;19913;-57
2021/06/02 08:27:13;;;;;;;;;;;;;;;32.26;19.83;94660.22;5018863;28;19920;-55
2021/06/02 08:29:40;;;;;;;;;;;;;;;32.94;19.04;94661.47;5018559;28;19917;-56
2021/06/02 08:32:08;;;;;;;;;;;;;;;33.18;18.56;94656.63;5018498;28;19913;-58
2021/06/02 08:34:36;;;;;;;;;;;;;;;33.62;17.74;94653.22;5018068;28;19925;-57
2021/06/02 08:37:03;;;;;;;;;;;;;;;33.08;18.40;94664.59;5018109;28;19917;-61
2021/06/02 08:39:30;;;;;;;;;;;;;;;32.68;18.82;94658.53;5017574;28;20345;-58
2021/06/02 08:41:57;;;;;;;;;;;;;;;33.35;19.08;94656.22;5018590;28;19921;-63
2021/06/02 08:44:24;;;;;;;;;;;;;;;33.49;18.20;94660.50;5018909;28;19913;-56
2021/06/02 08:46:52;;;;;;;;;;;;;;;32.89;18.35;94651.16;5019053;28;19913;-57
2021/06/02 08:49:20;;;;;;;;;;;;;;;33.63;17.59;94652.03;5018495;28;19945;-57
2021/06/02 08:51:47;;;;;;;;;;;;;;;33.31;17.71;94649.31;5018308;28;19913;-57
2021/06/02 08:54:14;;;;;;;;;;;;;;;34.67;16.76;94652.63;5017337;28;19944;-59
2021/06/02 08:56:42;;;;;;;;;;;;;;;32.89;18.62;94665.44;4998103;28;19925;-56
2021/06/02 08:59:09;;;;;;;;;;;;;;;33.85;17.23;94656.91;5002488;28;19925;-57
2021/06/02 09:01:37;;;;;;;;;;;;;;;33.59;17.45;94664.16;5018058;28;19944;-58
2021/06/02 09:04:04;;;;;;;;;;;;;;;34.06;17.36;94660.97;5017988;28;19921;-66
2021/06/02 09:06:32;;;;;;;;;;;;;;;34.74;16.82;94660.53;5018511;28;19921;-57
2021/06/02 09:09:00;;;;;;;;;;;;;;;34.17;16.96;94654.06;5018229;28;19913;-59
2021/06/02 09:11:27;;;;;;;;;;;;;;;32.47;17.83;94654.34;5018012;28;19914;-59
2021/06/02 09:13:54;;;;;;;;;;;;;;;33.35;17.92;94656.22;5018178;28;19917;-57
2021/06/02 09:16:28;;;;;;;;;;;;;;;32.32;19.11;94653.16;5018305;28;20305;-59
2021/06/02 09:18:58;;;;;;;;;;;;;;;31.73;20.29;94650.44;5008001;28;19921;-57
2021/06/02 09:21:27;;;;;;;;;;;;;;;31.62;19.49;94650.63;5017841;28;19920;-60
2021/06/02 09:23:54;;;;;;;;;;;;;;;31.59;19.40;94652.22;5018182;28;19925;-57
2021/06/02 09:26:25;;;;;;;;;;;;;;;30.55;20.07;94652.31;5015236;28;19923;-61
2021/06/02 09:28:52;;;;;;;;;;;;;;;31.17;19.42;94650.25;4998562;28;19924;-57
2021/06/02 09:31:19;;;;;;;;;;;;;;;30.46;20.52;94648.59;5013396;28;19920;-67
2021/06/02 09:33:46;;;;;;;;;;;;;;;30.98;20.00;94651.69;5017170;28;19921;-49
2021/06/02 09:36:13;;;;;;;;;;;;;;;32.09;18.95;94653.22;5000935;28;19917;-47
2021/06/02 09:38:40;;;;;;;;;;;;;;;31.83;19.61;94646.78;4998295;28;20340;-55
2021/06/02 09:41:07;;;;;;;;;;;;;;;31.03;19.56;94653.94;5015001;28;19919;-52
2021/06/02 09:43:34;;;;;;;;;;;;;;;31.51;19.79;94650.06;5013439;28;19914;-48
2021/06/02 09:46:05;;;;;;;;;;;;;;;31.94;19.71;94650.03;4998236;28;19921;-49
2021/06/02 09:48:38;;;;;;;;;;;;;;;31.77;19.64;94645.75;4998226;28;19928;-51
2021/06/02 09:51:05;;;;;;;;;;;;;;;30.82;20.32;94648.84;5015256;28;19913;-49
2021/06/02 09:53:32;;;;;;;;;;;;;;;31.50;19.49;94653.94;5017712;28;20309;-49
2021/06/02 09:55:59;;;;;;;;;;;;;;;31.67;19.27;94644.72;5016410;28;19913;-50
2021/06/02 09:58:26;;;;;;;;;;;;;;;31.66;18.81;94645.91;5017625;28;20248;-49
2021/06/02 10:00:54;;;;;;;;;;;;;;;31.76;18.89;94644.22;5017118;28;19918;-51
2021/06/02 10:03:27;;;;;;;;;;;;;;;31.75;19.18;94654.28;5017266;28;20321;-53
2021/06/02 10:05:54;;;;;;;;;;;;;;;31.64;19.27;94645.56;5016678;28;19928;-50
2021/06/02 10:08:25;;;;;;;;;;;;;;;32.14;17.85;94639.22;5017345;28;19928;-52
2021/06/02 10:10:52;;;;;;;;;;;;;;;31.50;18.53;94646.59;5016843;28;19917;-49
2021/06/02 10:13:22;;;;;;;;;;;;;;;31.87;18.59;94640.13;5017233;28;19920;-50
2021/06/02 10:15:49;;;;;;;;;;;;;;;31.59;18.60;94646.03;5017126;28;19913;-53
2021/06/02 10:18:26;;;;;;;;;;;;;;;31.48;19.02;94640.06;5017408;28;20248;-52
2021/06/02 10:21:00;;;;;;;;;;;;;;;31.84;18.43;94640.97;5016655;28;19921;-49
2021/06/02 10:23:27;;;;;;;;;;;;;;;31.63;18.66;94635.94;5016872;28;20236;-50
2021/06/02 10:25:54;;;;;;;;;;;;;;;32.19;17.63;94636.00;5016969;28;19925;-51
2021/06/02 10:28:21;;;;;;;;;;;;;;;31.68;18.60;94637.38;5016060;28;19925;-50
2021/06/02 10:30:48;;;;;;;;;;;;;;;31.01;18.79;94639.31;5015591;28;19924;-52
2021/06/02 10:33:15;;;;;;;;;;;;;;;31.68;18.71;94648.94;5016767;28;19913;-50
2021/06/02 10:35:42;;;;;;;;;;;;;;;32.01;18.16;94638.31;5015882;28;19921;-51
2021/06/02 10:38:09;;;;;;;;;;;;;;;31.42;17.99;94641.72;5016362;28;19918;-48
2021/06/02 10:40:36;;;;;;;;;;;;;;;31.40;18.20;94649.47;5015056;28;19917;-52
2021/06/02 10:43:16;;;;;;;;;;;;;;;31.62;18.13;94647.91;5015051;28;19921;-50
2021/06/02 10:45:46;;;;;;;;;;;;;;;31.39;18.31;94646.00;5015338;28;19928;-51
2021/06/02 10:48:13;;;;;;;;;;;;;;;31.26;18.59;94643.16;5016347;28;19928;-50
2021/06/02 10:50:40;;;;;;;;;;;;;;;32.09;17.38;94650.53;5014921;28;19920;-50
2021/06/02 10:53:20;;;;;;;;;;;;;;;31.71;18.16;94653.56;5016055;28;20236;-52
2021/06/02 10:55:55;;;;;;;;;;;;;;;30.72;19.67;94650.56;5015880;28;19913;-50
2021/06/02 10:58:26;;;;;;;;;;;;;;;31.21;19.28;94649.00;5016132;28;19917;-49
2021/06/02 11:01:13;;;;;;;;;;;;;;;31.13;19.40;94658.38;5015785;28;19921;-51
2021/06/02 11:03:43;;;;;;;;;;;;;;;31.65;18.89;94655.19;4996634;28;20256;-49
2021/06/02 11:06:13;;;;;;;;;;;;;;;31.13;19.28;94652.97;5015876;28;19917;-50
2021/06/02 11:08:49;;;;;;;;;;;;;;;32.08;18.09;94655.16;5016016;28;19979;-48
2021/06/02 11:11:20;;;;;;;;;;;;;;;31.74;18.76;94649.25;5015321;28;19944;-51
2021/06/02 11:14:10;;;;;;;;;;;;;;;31.26;19.33;94651.25;5015841;28;19913;-50
2021/06/02 11:16:38;;;;;;;;;;;;;;;31.77;18.96;94651.91;5015404;28;19921;-50
2021/06/02 11:19:15;;;;;;;;;;;;;;;31.10;19.62;94653.03;5015873;28;19913;-51
2021/06/02 11:21:44;;;;;;;;;;;;;;;31.42;19.32;94652.53;4999110;28;19921;-49
2021/06/02 11:24:30;;;;;;;;;;;;;;;31.85;18.67;94645.19;5015730;28;20316;-53
2021/06/02 11:27:17;;;;;;;;;;;;;;;31.49;19.37;94652.38;5015731;28;19985;-50
2021/06/02 11:29:50;;;;;;;;;;;;;;;31.90;19.02;94650.09;5015212;28;20395;-54
2021/06/02 11:32:17;;;;;;;;;;;;;;;31.59;19.45;94651.44;5014907;28;19921;-50
2021/06/02 11:34:49;;;;;;;;;;;;;;;31.64;19.11;94656.38;5014962;28;19921;-50
2021/06/02 11:37:17;;;;;;;;;;;;;;;31.78;19.02;94648.03;5015718;28;19922;-53
2021/06/02 11:39:44;;;;;;;;;;;;;;;31.86;18.75;94646.72;5015089;28;20236;-53
2021/06/02 11:42:25;;;;;;;;;;;;;;;31.48;18.88;94648.91;5015692;28;20304;-49
2021/06/02 11:44:56;;;;;;;;;;;;;;;31.71;19.38;94642.75;5015796;28;19928;-51
2021/06/02 11:47:23;;;;;;;;;;;;;;;31.74;18.54;94641.16;5015746;28;19918;-50
2021/06/02 11:49:50;;;;;;;;;;;;;;;31.74;18.95;94639.22;5015113;28;19947;-51
2021/06/02 11:52:17;;;;;;;;;;;;;;;32.16;18.19;94645.72;5015367;28;19913;-50
2021/06/02 11:54:48;;;;;;;;;;;;;;;31.81;18.22;94641.78;5015249;28;19914;-51
2021/06/02 11:57:25;;;;;;;;;;;;;;;32.44;18.33;94632.78;5015510;28;19924;-52
2021/06/02 11:59:52;;;;;;;;;;;;;;;31.88;18.36;94630.06;5014451;28;19927;-52
2021/06/02 12:02:19;;;;;;;;;;;;;;;32.72;17.69;94632.16;5015399;28;20308;-49
2021/06/02 12:04:46;;;;;;;;;;;;;;;31.97;19.33;94637.63;5014968;28;19913;-51
2021/06/02 12:07:20;;;;;;;;;;;;;;;32.11;18.84;94637.34;5015425;28;19925;-51
2021/06/02 12:09:51;;;;;;;;;;;;;;;31.86;18.61;94637.84;5014859;28;20272;-50
2021/06/02 12:12:18;;;;;;;;;;;;;;;31.26;18.90;94637.75;5015181;28;20252;-48
2021/06/02 12:14:55;;;;;;;;;;;;;;;31.50;17.71;94640.44;5015306;28;19920;-51
2021/06/02 12:17:28;;;;;;;;;;;;;;;31.66;17.28;94627.00;5015516;28;19924;-49
2021/06/02 12:19:57;;;;;;;;;;;;;;;31.09;18.11;94632.63;5014699;28;19928;-49
2021/06/02 12:22:24;;;;;;;;;;;;;;;31.60;17.00;94632.13;5015187;28;19914;-50
2021/06/02 12:25:12;;;;;;;;;;;;;;;31.37;17.81;94634.09;5015081;28;19913;-51
2021/06/02 12:28:07;;;;;;;;;;;;;;;31.62;17.74;94629.00;4995536;28;19950;-49
2021/06/02 12:30:36;;;;;;;;;;;;;;;31.28;18.32;94638.09;5001602;28;19921;-50
2021/06/02 12:33:04;;;;;;;;;;;;;;;31.23;17.88;94638.59;5014954;28;19924;-49
2021/06/02 12:35:32;;;;;;;;;;;;;;;31.29;17.25;94639.63;5013599;28;19921;-50
2021/06/02 12:38:00;;;;;;;;;;;;;;;31.27;17.45;94636.59;5014654;28;19921;-52
2021/06/02 12:40:27;;;;;;;;;;;;;;;31.26;18.42;94643.16;5014511;28;19925;-49
2021/06/02 12:42:54;;;;;;;;;;;;;;;31.08;18.56;94623.00;5014886;28;19917;-52
2021/06/02 12:45:21;;;;;;;;;;;;;;;31.16;18.02;94637.88;5013722;28;19924;-48
2021/06/02 12:47:48;;;;;;;;;;;;;;;31.05;18.06;94635.38;5014432;28;19925;-51
2021/06/02 12:50:34;;;;;;;;;;;;;;;31.02;18.72;94641.59;5014433;28;19913;-51
2021/06/02 12:53:01;;;;;;;;;;;;;;;31.49;17.91;94641.59;5014692;28;19924;-50
2021/06/02 12:55:28;;;;;;;;;;;;;;;31.76;17.84;94639.59;5014682;28;19914;-53
2021/06/02 12:58:03;;;;;;;;;;;;;;;31.26;18.38;94645.84;5014351;28;20327;-51
2021/06/02 13:00:30;;;;;;;;;;;;;;;31.48;18.50;94645.47;5014297;28;20312;-51
2021/06/02 13:02:58;;;;;;;;;;;;;;;31.50;18.42;94635.03;5014750;28;20319;-49
2021/06/02 13:05:25;;;;;;;;;;;;;;;30.90;18.22;94655.66;5013112;28;20342;-50
2021/06/02 13:07:52;;;;;;;;;;;;;;;31.70;18.18;94662.06;5014217;28;19928;-51
2021/06/02 13:10:19;;;;;;;;;;;;;;;31.33;18.22;94655.78;5013493;28;20238;-50
2021/06/02 13:12:51;;;;;;;;;;;;;;;31.37;17.60;94651.06;5017321;28;19917;-51